LGHI/JKH METAR and TAF weather

Enter ICAO airport designator
Station Type Date Time Source
LGHI METAR 2020/01/18 17:50 UTC NOAA

LGHI 181750Z 04016G26KT 9999 SCT025 11/05 Q1018


Station Type Date Time Source
LGHI Decoded METAR 2020/01/18 17:50 UTC NOAA

Chios Airport , Greece (LGHI) 38-20N 026-08E 4M
Jan 18, 2020 - 12:50 PM EST / 2020.01.18 1750 UTC
Wind: from the NE (040 degrees) at 18 MPH (16 KT) gusting to 30 MPH (26 KT):0
Visibility: greater than 7 mile(s):0
Sky conditions: partly cloudy
Temperature: 51 F (11 C)
Dew Point: 41 F (5 C)
Relative Humidity: 66%
Pressure (altimeter): 30.06 in. Hg (1018 hPa)
ob: LGHI 181750Z 04016G26KT 9999 SCT025 11/05 Q1018
cycle: 18

Station Type Date Time Source
LGHI TAF 2012/09/21 03:06 UTC NOAA

TAF TAF LGHI 210200Z 2103/2115 VRB05KT 9999 SCT020 PROB30
TEMPO 2103/2106 7000 RA SCT018 BKN030
BECMG 2103/2105 30018KT

Example: see airport list